sensor_id;sensor_type;location;lat;lon;timestamp;P1;durP1;ratioP1;P2;durP2;ratioP2
31282;SDS011;17915;52.540;13.604;2023-11-19T00:00:19;11.30;;;8.40;;
31282;SDS011;17915;52.540;13.604;2023-11-19T00:02:44;8.53;;;7.63;;
31282;SDS011;17915;52.540;13.604;2023-11-19T00:05:10;8.77;;;7.93;;
31282;SDS011;17915;52.540;13.604;2023-11-19T00:07:38;7.65;;;6.85;;
31282;SDS011;17915;52.540;13.604;2023-11-19T00:10:08;12.52;;;8.38;;
31282;SDS011;17915;52.540;13.604;2023-11-19T00:12:35;8.80;;;8.00;;
31282;SDS011;17915;52.540;13.604;2023-11-19T00:15:02;9.95;;;7.97;;
31282;SDS011;17915;52.540;13.604;2023-11-19T00:17:27;9.63;;;8.17;;
31282;SDS011;17915;52.540;13.604;2023-11-19T00:19:52;8.80;;;7.30;;
31282;SDS011;17915;52.540;13.604;2023-11-19T00:22:18;8.50;;;7.20;;
31282;SDS011;17915;52.540;13.604;2023-11-19T00:24:43;9.03;;;8.13;;
31282;SDS011;17915;52.540;13.604;2023-11-19T00:27:09;8.27;;;7.50;;
31282;SDS011;17915;52.540;13.604;2023-11-19T00:29:35;8.80;;;7.70;;
31282;SDS011;17915;52.540;13.604;2023-11-19T00:32:01;8.63;;;7.78;;
31282;SDS011;17915;52.540;13.604;2023-11-19T00:34:27;10.20;;;7.27;;
31282;SDS011;17915;52.540;13.604;2023-11-19T00:36:52;9.90;;;7.77;;
31282;SDS011;17915;52.540;13.604;2023-11-19T00:39:17;8.97;;;7.57;;
31282;SDS011;17915;52.540;13.604;2023-11-19T00:41:43;9.10;;;7.60;;
31282;SDS011;17915;52.540;13.604;2023-11-19T00:44:08;7.80;;;7.10;;
31282;SDS011;17915;52.540;13.604;2023-11-19T00:46:34;8.83;;;8.10;;
31282;SDS011;17915;52.540;13.604;2023-11-19T00:48:59;8.10;;;7.30;;
31282;SDS011;17915;52.540;13.604;2023-11-19T00:51:26;9.30;;;8.05;;
31282;SDS011;17915;52.540;13.604;2023-11-19T00:53:51;7.70;;;7.00;;
31282;SDS011;17915;52.540;13.604;2023-11-19T00:56:18;7.28;;;6.60;;
31282;SDS011;17915;52.540;13.604;2023-11-19T00:58:44;7.20;;;6.50;;
31282;SDS011;17915;52.540;13.604;2023-11-19T01:01:11;9.25;;;7.57;;
31282;SDS011;17915;52.540;13.604;2023-11-19T01:06:02;8.70;;;7.05;;
31282;SDS011;17915;52.540;13.604;2023-11-19T01:08:28;6.83;;;6.13;;
31282;SDS011;17915;52.540;13.604;2023-11-19T01:10:53;7.70;;;6.67;;
31282;SDS011;17915;52.540;13.604;2023-11-19T01:13:18;8.17;;;7.37;;
31282;SDS011;17915;52.540;13.604;2023-11-19T01:15:44;7.20;;;6.60;;
31282;SDS011;17915;52.540;13.604;2023-11-19T01:18:09;6.67;;;6.07;;
31282;SDS011;17915;52.540;13.604;2023-11-19T01:20:34;9.33;;;6.97;;
31282;SDS011;17915;52.540;13.604;2023-11-19T01:23:00;7.43;;;6.73;;
31282;SDS011;17915;52.540;13.604;2023-11-19T01:25:25;7.30;;;6.70;;
31282;SDS011;17915;52.540;13.604;2023-11-19T01:27:51;10.40;;;7.27;;
31282;SDS011;17915;52.540;13.604;2023-11-19T01:30:16;8.13;;;7.23;;
31282;SDS011;17915;52.540;13.604;2023-11-19T01:32:41;8.00;;;7.20;;
31282;SDS011;17915;52.540;13.604;2023-11-19T01:35:07;7.97;;;7.17;;
31282;SDS011;17915;52.540;13.604;2023-11-19T01:37:36;10.15;;;7.57;;
31282;SDS011;17915;52.540;13.604;2023-11-19T01:40:01;11.40;;;6.87;;
31282;SDS011;17915;52.540;13.604;2023-11-19T01:42:29;12.85;;;7.07;;
31282;SDS011;17915;52.540;13.604;2023-11-19T01:44:58;7.30;;;6.60;;
31282;SDS011;17915;52.540;13.604;2023-11-19T01:47:24;7.07;;;6.35;;
31282;SDS011;17915;52.540;13.604;2023-11-19T01:49:50;9.50;;;6.85;;
31282;SDS011;17915;52.540;13.604;2023-11-19T01:52:16;7.20;;;6.23;;
31282;SDS011;17915;52.540;13.604;2023-11-19T01:54:42;10.07;;;6.15;;
31282;SDS011;17915;52.540;13.604;2023-11-19T01:57:08;10.00;;;6.03;;
31282;SDS011;17915;52.540;13.604;2023-11-19T01:59:34;6.55;;;5.95;;
31282;SDS011;17915;52.540;13.604;2023-11-19T02:01:59;7.77;;;6.43;;
31282;SDS011;17915;52.540;13.604;2023-11-19T02:04:25;7.20;;;6.60;;
31282;SDS011;17915;52.540;13.604;2023-11-19T02:06:51;7.65;;;6.93;;
31282;SDS011;17915;52.540;13.604;2023-11-19T02:09:19;9.02;;;7.22;;
31282;SDS011;17915;52.540;13.604;2023-11-19T02:11:44;7.27;;;6.00;;
31282;SDS011;17915;52.540;13.604;2023-11-19T02:14:13;6.97;;;6.43;;
31282;SDS011;17915;52.540;13.604;2023-11-19T02:16:39;6.50;;;6.00;;
31282;SDS011;17915;52.540;13.604;2023-11-19T02:19:04;8.23;;;6.33;;
31282;SDS011;17915;52.540;13.604;2023-11-19T02:21:31;7.45;;;5.85;;
31282;SDS011;17915;52.540;13.604;2023-11-19T02:23:56;7.43;;;6.77;;
31282;SDS011;17915;52.540;13.604;2023-11-19T02:26:30;15.13;;;7.20;;
31282;SDS011;17915;52.540;13.604;2023-11-19T02:28:58;7.90;;;7.20;;
31282;SDS011;17915;52.540;13.604;2023-11-19T02:31:24;11.17;;;7.43;;
31282;SDS011;17915;52.540;13.604;2023-11-19T02:33:49;7.63;;;6.93;;
31282;SDS011;17915;52.540;13.604;2023-11-19T02:36:15;9.67;;;6.30;;
31282;SDS011;17915;52.540;13.604;2023-11-19T02:41:07;8.02;;;6.32;;
31282;SDS011;17915;52.540;13.604;2023-11-19T02:43:32;7.83;;;7.03;;
31282;SDS011;17915;52.540;13.604;2023-11-19T02:46:01;8.25;;;6.72;;
31282;SDS011;17915;52.540;13.604;2023-11-19T02:48:37;7.15;;;6.55;;
31282;SDS011;17915;52.540;13.604;2023-11-19T02:51:02;9.13;;;7.30;;
31282;SDS011;17915;52.540;13.604;2023-11-19T02:53:29;7.97;;;6.93;;
31282;SDS011;17915;52.540;13.604;2023-11-19T02:55:54;9.57;;;7.20;;
31282;SDS011;17915;52.540;13.604;2023-11-19T02:58:26;7.40;;;6.78;;
31282;SDS011;17915;52.540;13.604;2023-11-19T03:00:53;7.72;;;6.90;;
31282;SDS011;17915;52.540;13.604;2023-11-19T03:03:23;9.52;;;7.50;;
31282;SDS011;17915;52.540;13.604;2023-11-19T03:05:53;6.50;;;5.82;;
31282;SDS011;17915;52.540;13.604;2023-11-19T03:08:19;10.53;;;6.13;;
31282;SDS011;17915;52.540;13.604;2023-11-19T03:10:44;9.30;;;7.57;;
31282;SDS011;17915;52.540;13.604;2023-11-19T03:13:11;14.90;;;7.13;;
31282;SDS011;17915;52.540;13.604;2023-11-19T03:15:38;9.75;;;7.25;;
31282;SDS011;17915;52.540;13.604;2023-11-19T03:18:03;7.10;;;6.37;;
31282;SDS011;17915;52.540;13.604;2023-11-19T03:20:29;7.93;;;6.00;;
31282;SDS011;17915;52.540;13.604;2023-11-19T03:22:55;7.38;;;6.43;;
31282;SDS011;17915;52.540;13.604;2023-11-19T03:25:20;7.70;;;5.73;;
31282;SDS011;17915;52.540;13.604;2023-11-19T03:27:46;6.80;;;6.20;;
31282;SDS011;17915;52.540;13.604;2023-11-19T03:30:11;8.30;;;7.40;;
31282;SDS011;17915;52.540;13.604;2023-11-19T03:32:37;6.07;;;5.53;;
31282;SDS011;17915;52.540;13.604;2023-11-19T03:35:04;9.30;;;6.10;;
31282;SDS011;17915;52.540;13.604;2023-11-19T03:37:32;9.02;;;6.05;;
31282;SDS011;17915;52.540;13.604;2023-11-19T03:39:57;6.57;;;5.97;;
31282;SDS011;17915;52.540;13.604;2023-11-19T03:42:27;8.68;;;6.18;;
31282;SDS011;17915;52.540;13.604;2023-11-19T03:44:53;11.43;;;5.95;;
31282;SDS011;17915;52.540;13.604;2023-11-19T03:47:19;8.93;;;5.75;;
31282;SDS011;17915;52.540;13.604;2023-11-19T03:49:51;6.30;;;5.80;;
31282;SDS011;17915;52.540;13.604;2023-11-19T03:52:17;7.00;;;6.10;;
31282;SDS011;17915;52.540;13.604;2023-11-19T03:54:43;10.60;;;5.57;;
31282;SDS011;17915;52.540;13.604;2023-11-19T03:57:08;8.43;;;6.07;;
31282;SDS011;17915;52.540;13.604;2023-11-19T03:59:35;6.50;;;5.93;;
31282;SDS011;17915;52.540;13.604;2023-11-19T04:02:01;7.03;;;6.43;;
31282;SDS011;17915;52.540;13.604;2023-11-19T04:04:27;6.70;;;6.10;;
31282;SDS011;17915;52.540;13.604;2023-11-19T04:06:53;8.73;;;6.30;;
31282;SDS011;17915;52.540;13.604;2023-11-19T04:09:18;8.50;;;7.63;;
31282;SDS011;17915;52.540;13.604;2023-11-19T04:11:44;6.67;;;6.20;;
31282;SDS011;17915;52.540;13.604;2023-11-19T04:14:11;8.52;;;6.68;;
31282;SDS011;17915;52.540;13.604;2023-11-19T04:16:38;7.43;;;6.63;;
31282;SDS011;17915;52.540;13.604;2023-11-19T04:19:03;7.40;;;6.70;;
31282;SDS011;17915;52.540;13.604;2023-11-19T04:21:28;6.53;;;5.93;;
31282;SDS011;17915;52.540;13.604;2023-11-19T04:23:54;8.50;;;7.57;;
31282;SDS011;17915;52.540;13.604;2023-11-19T04:26:19;9.07;;;6.93;;
31282;SDS011;17915;52.540;13.604;2023-11-19T04:28:44;8.13;;;6.70;;
31282;SDS011;17915;52.540;13.604;2023-11-19T04:31:10;8.53;;;7.53;;
31282;SDS011;17915;52.540;13.604;2023-11-19T04:33:35;17.93;;;6.97;;
31282;SDS011;17915;52.540;13.604;2023-11-19T04:36:01;12.23;;;7.77;;
31282;SDS011;17915;52.540;13.604;2023-11-19T04:38:27;10.45;;;6.95;;
31282;SDS011;17915;52.540;13.604;2023-11-19T04:40:52;13.90;;;6.90;;
31282;SDS011;17915;52.540;13.604;2023-11-19T04:43:18;14.20;;;8.27;;
31282;SDS011;17915;52.540;13.604;2023-11-19T04:45:44;11.88;;;7.53;;
31282;SDS011;17915;52.540;13.604;2023-11-19T04:48:09;11.10;;;7.23;;
31282;SDS011;17915;52.540;13.604;2023-11-19T04:50:35;7.93;;;7.13;;
31282;SDS011;17915;52.540;13.604;2023-11-19T04:53:00;9.57;;;6.77;;
31282;SDS011;17915;52.540;13.604;2023-11-19T04:55:26;8.23;;;7.40;;
31282;SDS011;17915;52.540;13.604;2023-11-19T04:57:53;8.23;;;7.43;;
31282;SDS011;17915;52.540;13.604;2023-11-19T05:00:19;11.35;;;7.55;;
31282;SDS011;17915;52.540;13.604;2023-11-19T05:02:46;8.40;;;7.70;;
31282;SDS011;17915;52.540;13.604;2023-11-19T05:05:11;7.73;;;6.97;;
31282;SDS011;17915;52.540;13.604;2023-11-19T05:07:37;9.57;;;7.33;;
31282;SDS011;17915;52.540;13.604;2023-11-19T05:10:03;19.30;;;9.20;;
31282;SDS011;17915;52.540;13.604;2023-11-19T05:12:29;7.50;;;6.80;;
31282;SDS011;17915;52.540;13.604;2023-11-19T05:14:54;9.33;;;7.50;;
31282;SDS011;17915;52.540;13.604;2023-11-19T05:17:20;8.00;;;7.17;;
31282;SDS011;17915;52.540;13.604;2023-11-19T05:19:45;8.07;;;7.13;;
31282;SDS011;17915;52.540;13.604;2023-11-19T05:22:11;9.13;;;7.53;;
31282;SDS011;17915;52.540;13.604;2023-11-19T05:24:37;9.00;;;8.10;;
31282;SDS011;17915;52.540;13.604;2023-11-19T05:27:04;9.77;;;8.45;;
31282;SDS011;17915;52.540;13.604;2023-11-19T05:29:30;8.83;;;7.90;;
31282;SDS011;17915;52.540;13.604;2023-11-19T05:31:55;8.83;;;7.43;;
31282;SDS011;17915;52.540;13.604;2023-11-19T05:34:20;12.77;;;7.47;;
31282;SDS011;17915;52.540;13.604;2023-11-19T05:36:46;7.93;;;7.17;;
31282;SDS011;17915;52.540;13.604;2023-11-19T05:39:12;12.63;;;7.70;;
31282;SDS011;17915;52.540;13.604;2023-11-19T05:41:37;8.00;;;7.20;;
31282;SDS011;17915;52.540;13.604;2023-11-19T05:44:02;9.07;;;8.27;;
31282;SDS011;17915;52.540;13.604;2023-11-19T05:46:28;11.53;;;7.60;;
31282;SDS011;17915;52.540;13.604;2023-11-19T05:48:53;11.17;;;7.37;;
31282;SDS011;17915;52.540;13.604;2023-11-19T05:51:19;8.80;;;7.93;;
31282;SDS011;17915;52.540;13.604;2023-11-19T05:53:44;7.50;;;6.70;;
31282;SDS011;17915;52.540;13.604;2023-11-19T05:56:15;7.18;;;6.43;;
31282;SDS011;17915;52.540;13.604;2023-11-19T05:58:41;7.63;;;6.93;;
31282;SDS011;17915;52.540;13.604;2023-11-19T06:01:06;7.57;;;6.88;;
31282;SDS011;17915;52.540;13.604;2023-11-19T06:03:32;14.50;;;7.10;;
31282;SDS011;17915;52.540;13.604;2023-11-19T06:05:58;7.47;;;6.87;;
31282;SDS011;17915;52.540;13.604;2023-11-19T06:08:23;9.47;;;7.27;;
31282;SDS011;17915;52.540;13.604;2023-11-19T06:10:49;9.87;;;6.57;;
31282;SDS011;17915;52.540;13.604;2023-11-19T06:13:16;7.63;;;6.00;;
31282;SDS011;17915;52.540;13.604;2023-11-19T06:15:41;7.80;;;6.50;;
31282;SDS011;17915;52.540;13.604;2023-11-19T06:18:07;7.22;;;6.25;;
31282;SDS011;17915;52.540;13.604;2023-11-19T06:20:33;6.38;;;5.80;;
31282;SDS011;17915;52.540;13.604;2023-11-19T06:22:59;5.57;;;4.65;;
31282;SDS011;17915;52.540;13.604;2023-11-19T06:25:25;6.43;;;5.20;;
31282;SDS011;17915;52.540;13.604;2023-11-19T06:27:51;6.10;;;5.60;;
31282;SDS011;17915;52.540;13.604;2023-11-19T06:30:17;5.80;;;5.35;;
31282;SDS011;17915;52.540;13.604;2023-11-19T06:32:42;6.27;;;5.67;;
31282;SDS011;17915;52.540;13.604;2023-11-19T06:35:08;5.87;;;5.43;;
31282;SDS011;17915;52.540;13.604;2023-11-19T06:40:00;4.88;;;4.47;;
31282;SDS011;17915;52.540;13.604;2023-11-19T06:42:25;5.27;;;4.77;;
31282;SDS011;17915;52.540;13.604;2023-11-19T06:44:51;5.07;;;4.67;;
31282;SDS011;17915;52.540;13.604;2023-11-19T06:47:16;9.60;;;5.00;;
31282;SDS011;17915;52.540;13.604;2023-11-19T06:49:45;6.30;;;5.05;;
31282;SDS011;17915;52.540;13.604;2023-11-19T06:52:10;5.45;;;5.03;;
31282;SDS011;17915;52.540;13.604;2023-11-19T06:54:36;5.03;;;4.63;;
31282;SDS011;17915;52.540;13.604;2023-11-19T06:57:03;6.15;;;4.10;;
31282;SDS011;17915;52.540;13.604;2023-11-19T06:59:30;4.95;;;4.55;;
31282;SDS011;17915;52.540;13.604;2023-11-19T07:01:55;6.97;;;4.43;;
31282;SDS011;17915;52.540;13.604;2023-11-19T07:04:21;6.87;;;4.43;;
31282;SDS011;17915;52.540;13.604;2023-11-19T07:06:46;4.55;;;4.25;;
31282;SDS011;17915;52.540;13.604;2023-11-19T07:11:39;3.85;;;3.60;;
31282;SDS011;17915;52.540;13.604;2023-11-19T07:14:05;4.22;;;3.70;;
31282;SDS011;17915;52.540;13.604;2023-11-19T07:16:35;4.80;;;4.50;;
31282;SDS011;17915;52.540;13.604;2023-11-19T07:19:02;4.28;;;3.90;;
31282;SDS011;17915;52.540;13.604;2023-11-19T07:21:28;3.88;;;3.65;;
31282;SDS011;17915;52.540;13.604;2023-11-19T07:23:54;3.87;;;3.67;;
31282;SDS011;17915;52.540;13.604;2023-11-19T07:26:20;3.95;;;3.75;;
31282;SDS011;17915;52.540;13.604;2023-11-19T07:28:45;4.43;;;4.10;;
31282;SDS011;17915;52.540;13.604;2023-11-19T07:31:11;4.53;;;4.23;;
31282;SDS011;17915;52.540;13.604;2023-11-19T07:36:04;3.55;;;3.35;;
31282;SDS011;17915;52.540;13.604;2023-11-19T07:38:29;4.40;;;4.17;;
31282;SDS011;17915;52.540;13.604;2023-11-19T07:40:55;3.67;;;3.47;;
31282;SDS011;17915;52.540;13.604;2023-11-19T07:43:20;3.80;;;3.50;;
31282;SDS011;17915;52.540;13.604;2023-11-19T07:45:45;4.90;;;4.40;;
31282;SDS011;17915;52.540;13.604;2023-11-19T07:48:11;6.80;;;3.97;;
31282;SDS011;17915;52.540;13.604;2023-11-19T07:53:03;1.95;;;1.85;;
31282;SDS011;17915;52.540;13.604;2023-11-19T07:55:29;3.77;;;3.57;;
31282;SDS011;17915;52.540;13.604;2023-11-19T07:57:55;4.10;;;3.80;;
31282;SDS011;17915;52.540;13.604;2023-11-19T08:00:20;3.83;;;3.60;;
31282;SDS011;17915;52.540;13.604;2023-11-19T08:02:46;4.10;;;3.73;;
31282;SDS011;17915;52.540;13.604;2023-11-19T08:05:11;3.80;;;3.60;;
31282;SDS011;17915;52.540;13.604;2023-11-19T08:07:37;3.33;;;3.03;;
31282;SDS011;17915;52.540;13.604;2023-11-19T08:10:02;4.23;;;3.93;;
31282;SDS011;17915;52.540;13.604;2023-11-19T08:12:30;3.97;;;3.78;;
31282;SDS011;17915;52.540;13.604;2023-11-19T08:14:55;3.92;;;3.63;;
31282;SDS011;17915;52.540;13.604;2023-11-19T08:17:23;3.75;;;3.45;;
31282;SDS011;17915;52.540;13.604;2023-11-19T08:19:49;4.80;;;4.50;;
31282;SDS011;17915;52.540;13.604;2023-11-19T08:22:14;4.20;;;3.97;;
31282;SDS011;17915;52.540;13.604;2023-11-19T08:24:41;4.47;;;4.10;;
31282;SDS011;17915;52.540;13.604;2023-11-19T08:27:07;4.67;;;3.83;;
31282;SDS011;17915;52.540;13.604;2023-11-19T08:29:32;4.43;;;4.00;;
31282;SDS011;17915;52.540;13.604;2023-11-19T08:31:57;6.93;;;4.40;;
31282;SDS011;17915;52.540;13.604;2023-11-19T08:34:25;4.18;;;3.78;;
31282;SDS011;17915;52.540;13.604;2023-11-19T08:36:51;5.20;;;3.90;;
31282;SDS011;17915;52.540;13.604;2023-11-19T08:39:18;3.00;;;2.90;;
31282;SDS011;17915;52.540;13.604;2023-11-19T08:41:44;4.65;;;4.30;;
31282;SDS011;17915;52.540;13.604;2023-11-19T08:44:09;4.20;;;4.00;;
31282;SDS011;17915;52.540;13.604;2023-11-19T08:46:34;4.20;;;3.90;;
31282;SDS011;17915;52.540;13.604;2023-11-19T08:49:00;4.10;;;3.90;;
31282;SDS011;17915;52.540;13.604;2023-11-19T08:51:25;4.50;;;4.23;;
31282;SDS011;17915;52.540;13.604;2023-11-19T08:53:51;4.00;;;3.80;;
31282;SDS011;17915;52.540;13.604;2023-11-19T08:56:16;4.30;;;4.00;;
31282;SDS011;17915;52.540;13.604;2023-11-19T08:58:42;5.07;;;4.70;;
31282;SDS011;17915;52.540;13.604;2023-11-19T09:01:07;5.37;;;4.90;;
31282;SDS011;17915;52.540;13.604;2023-11-19T09:03:32;4.37;;;4.17;;
31282;SDS011;17915;52.540;13.604;2023-11-19T09:05:58;5.53;;;5.03;;
31282;SDS011;17915;52.540;13.604;2023-11-19T09:08:23;4.77;;;4.47;;
31282;SDS011;17915;52.540;13.604;2023-11-19T09:10:49;4.77;;;4.30;;
31282;SDS011;17915;52.540;13.604;2023-11-19T09:13:14;10.40;;;6.70;;
31282;SDS011;17915;52.540;13.604;2023-11-19T09:15:39;4.37;;;4.07;;
31282;SDS011;17915;52.540;13.604;2023-11-19T09:18:07;5.60;;;5.13;;
31282;SDS011;17915;52.540;13.604;2023-11-19T09:20:32;4.83;;;4.30;;
31282;SDS011;17915;52.540;13.604;2023-11-19T09:23:03;6.75;;;6.15;;
31282;SDS011;17915;52.540;13.604;2023-11-19T09:25:28;5.90;;;5.30;;
31282;SDS011;17915;52.540;13.604;2023-11-19T09:27:54;4.90;;;4.57;;
31282;SDS011;17915;52.540;13.604;2023-11-19T09:30:19;14.07;;;5.90;;
31282;SDS011;17915;52.540;13.604;2023-11-19T09:32:45;8.80;;;5.22;;
31282;SDS011;17915;52.540;13.604;2023-11-19T09:35:10;5.47;;;5.03;;
31282;SDS011;17915;52.540;13.604;2023-11-19T09:37:38;5.10;;;4.78;;
31282;SDS011;17915;52.540;13.604;2023-11-19T09:40:04;6.03;;;5.53;;
31282;SDS011;17915;52.540;13.604;2023-11-19T09:42:31;5.75;;;5.25;;
31282;SDS011;17915;52.540;13.604;2023-11-19T09:45:04;6.03;;;4.93;;
31282;SDS011;17915;52.540;13.604;2023-11-19T09:47:32;5.68;;;5.22;;
31282;SDS011;17915;52.540;13.604;2023-11-19T09:49:57;5.60;;;5.03;;
31282;SDS011;17915;52.540;13.604;2023-11-19T09:52:23;5.07;;;4.73;;
31282;SDS011;17915;52.540;13.604;2023-11-19T09:54:49;11.02;;;5.10;;
31282;SDS011;17915;52.540;13.604;2023-11-19T09:57:15;8.80;;;7.47;;
31282;SDS011;17915;52.540;13.604;2023-11-19T09:59:42;6.57;;;5.13;;
31282;SDS011;17915;52.540;13.604;2023-11-19T10:02:08;5.03;;;4.63;;
31282;SDS011;17915;52.540;13.604;2023-11-19T10:04:33;4.30;;;3.20;;
31282;SDS011;17915;52.540;13.604;2023-11-19T10:06:59;4.45;;;4.05;;
31282;SDS011;17915;52.540;13.604;2023-11-19T10:09:24;6.20;;;3.77;;
31282;SDS011;17915;52.540;13.604;2023-11-19T10:11:50;5.67;;;4.07;;
31282;SDS011;17915;52.540;13.604;2023-11-19T10:14:15;6.13;;;4.23;;
31282;SDS011;17915;52.540;13.604;2023-11-19T10:16:44;5.15;;;4.65;;
31282;SDS011;17915;52.540;13.604;2023-11-19T10:19:12;5.05;;;4.60;;
31282;SDS011;17915;52.540;13.604;2023-11-19T10:21:43;10.82;;;4.03;;
31282;SDS011;17915;52.540;13.604;2023-11-19T10:24:11;6.35;;;4.35;;
31282;SDS011;17915;52.540;13.604;2023-11-19T10:26:36;5.60;;;5.10;;
31282;SDS011;17915;52.540;13.604;2023-11-19T10:29:02;5.90;;;5.40;;
31282;SDS011;17915;52.540;13.604;2023-11-19T10:31:27;6.37;;;4.27;;
31282;SDS011;17915;52.540;13.604;2023-11-19T10:33:53;7.67;;;4.33;;
31282;SDS011;17915;52.540;13.604;2023-11-19T10:36:19;6.20;;;3.92;;
31282;SDS011;17915;52.540;13.604;2023-11-19T10:38:54;4.87;;;4.50;;
31282;SDS011;17915;52.540;13.604;2023-11-19T10:41:26;5.80;;;4.13;;
31282;SDS011;17915;52.540;13.604;2023-11-19T10:43:52;4.68;;;3.83;;
31282;SDS011;17915;52.540;13.604;2023-11-19T10:46:18;6.43;;;3.40;;
31282;SDS011;17915;52.540;13.604;2023-11-19T10:48:47;5.05;;;3.85;;
31282;SDS011;17915;52.540;13.604;2023-11-19T10:51:13;11.83;;;4.27;;
31282;SDS011;17915;52.540;13.604;2023-11-19T10:53:48;8.50;;;2.80;;
31282;SDS011;17915;52.540;13.604;2023-11-19T10:56:16;2.83;;;2.63;;
31282;SDS011;17915;52.540;13.604;2023-11-19T10:58:44;7.40;;;4.00;;
31282;SDS011;17915;52.540;13.604;2023-11-19T11:01:19;6.10;;;3.88;;
31282;SDS011;17915;52.540;13.604;2023-11-19T11:03:48;9.98;;;3.10;;
31282;SDS011;17915;52.540;13.604;2023-11-19T11:06:16;2.83;;;2.63;;
31282;SDS011;17915;52.540;13.604;2023-11-19T11:08:42;13.13;;;4.00;;
31282;SDS011;17915;52.540;13.604;2023-11-19T11:11:08;7.05;;;3.92;;
31282;SDS011;17915;52.540;13.604;2023-11-19T11:13:35;6.03;;;2.75;;
31282;SDS011;17915;52.540;13.604;2023-11-19T11:18:29;9.48;;;3.55;;
31282;SDS011;17915;52.540;13.604;2023-11-19T11:20:57;16.27;;;4.63;;
31282;SDS011;17915;52.540;13.604;2023-11-19T11:28:35;12.88;;;4.72;;
31282;SDS011;17915;52.540;13.604;2023-11-19T11:31:12;7.03;;;3.35;;
31282;SDS011;17915;52.540;13.604;2023-11-19T11:36:53;10.77;;;4.40;;
31282;SDS011;17915;52.540;13.604;2023-11-19T11:39:33;12.60;;;4.00;;
31282;SDS011;17915;52.540;13.604;2023-11-19T11:50:19;15.00;;;6.10;;
31282;SDS011;17915;52.540;13.604;2023-11-19T11:55:26;14.85;;;4.13;;
31282;SDS011;17915;52.540;13.604;2023-11-19T11:57:52;14.27;;;5.22;;
31282;SDS011;17915;52.540;13.604;2023-11-19T12:00:38;15.77;;;5.20;;
31282;SDS011;17915;52.540;13.604;2023-11-19T12:03:05;19.50;;;5.75;;
31282;SDS011;17915;52.540;13.604;2023-11-19T12:05:32;16.35;;;6.45;;
31282;SDS011;17915;52.540;13.604;2023-11-19T12:08:05;19.73;;;5.82;;
31282;SDS011;17915;52.540;13.604;2023-11-19T12:10:45;24.67;;;5.63;;
31282;SDS011;17915;52.540;13.604;2023-11-19T12:13:12;14.50;;;4.88;;
31282;SDS011;17915;52.540;13.604;2023-11-19T12:18:29;13.93;;;5.30;;
31282;SDS011;17915;52.540;13.604;2023-11-19T12:20:56;17.25;;;5.53;;
31282;SDS011;17915;52.540;13.604;2023-11-19T12:23:22;27.85;;;5.88;;
31282;SDS011;17915;52.540;13.604;2023-11-19T12:25:47;21.50;;;6.10;;
31282;SDS011;17915;52.540;13.604;2023-11-19T12:28:13;16.37;;;5.43;;
31282;SDS011;17915;52.540;13.604;2023-11-19T12:30:39;15.80;;;5.47;;
31282;SDS011;17915;52.540;13.604;2023-11-19T12:33:08;29.67;;;5.90;;
31282;SDS011;17915;52.540;13.604;2023-11-19T12:35:38;16.52;;;6.55;;
31282;SDS011;17915;52.540;13.604;2023-11-19T12:38:04;27.05;;;6.43;;
31282;SDS011;17915;52.540;13.604;2023-11-19T12:40:30;17.07;;;4.93;;
31282;SDS011;17915;52.540;13.604;2023-11-19T12:42:55;20.60;;;7.23;;
31282;SDS011;17915;52.540;13.604;2023-11-19T12:45:21;16.60;;;6.57;;
31282;SDS011;17915;52.540;13.604;2023-11-19T12:47:48;18.20;;;5.57;;
31282;SDS011;17915;52.540;13.604;2023-11-19T12:50:15;26.88;;;6.75;;
31282;SDS011;17915;52.540;13.604;2023-11-19T12:52:42;22.90;;;5.95;;
31282;SDS011;17915;52.540;13.604;2023-11-19T12:55:24;16.73;;;6.47;;
31282;SDS011;17915;52.540;13.604;2023-11-19T12:57:50;19.17;;;5.65;;
31282;SDS011;17915;52.540;13.604;2023-11-19T13:00:19;20.37;;;6.63;;
31282;SDS011;17915;52.540;13.604;2023-11-19T13:05:22;22.30;;;6.50;;
31282;SDS011;17915;52.540;13.604;2023-11-19T13:08:03;26.15;;;7.45;;
31282;SDS011;17915;52.540;13.604;2023-11-19T13:10:33;19.55;;;6.25;;
31282;SDS011;17915;52.540;13.604;2023-11-19T13:13:07;28.35;;;6.93;;
31282;SDS011;17915;52.540;13.604;2023-11-19T13:15:33;25.48;;;7.22;;
31282;SDS011;17915;52.540;13.604;2023-11-19T13:18:02;21.35;;;5.93;;
31282;SDS011;17915;52.540;13.604;2023-11-19T13:20:28;27.97;;;6.90;;
31282;SDS011;17915;52.540;13.604;2023-11-19T13:22:57;26.70;;;7.55;;
31282;SDS011;17915;52.540;13.604;2023-11-19T13:25:23;32.88;;;7.15;;
31282;SDS011;17915;52.540;13.604;2023-11-19T13:27:49;23.50;;;7.13;;
31282;SDS011;17915;52.540;13.604;2023-11-19T13:30:14;26.07;;;7.00;;
31282;SDS011;17915;52.540;13.604;2023-11-19T13:32:40;29.90;;;6.72;;
31282;SDS011;17915;52.540;13.604;2023-11-19T13:35:05;23.00;;;6.53;;
31282;SDS011;17915;52.540;13.604;2023-11-19T13:37:33;26.55;;;5.28;;
31282;SDS011;17915;52.540;13.604;2023-11-19T13:39:59;25.60;;;6.63;;
31282;SDS011;17915;52.540;13.604;2023-11-19T13:42:24;25.60;;;5.73;;
31282;SDS011;17915;52.540;13.604;2023-11-19T13:44:50;24.10;;;6.70;;
31282;SDS011;17915;52.540;13.604;2023-11-19T13:47:15;25.87;;;6.23;;
31282;SDS011;17915;52.540;13.604;2023-11-19T13:49:40;24.97;;;7.63;;
31282;SDS011;17915;52.540;13.604;2023-11-19T13:52:06;32.53;;;7.60;;
31282;SDS011;17915;52.540;13.604;2023-11-19T13:54:31;26.50;;;6.80;;
31282;SDS011;17915;52.540;13.604;2023-11-19T13:56:56;22.70;;;6.53;;
31282;SDS011;17915;52.540;13.604;2023-11-19T13:59:25;33.47;;;7.32;;
31282;SDS011;17915;52.540;13.604;2023-11-19T14:01:52;18.10;;;5.97;;
31282;SDS011;17915;52.540;13.604;2023-11-19T14:04:17;27.53;;;6.80;;
31282;SDS011;17915;52.540;13.604;2023-11-19T14:06:44;28.77;;;6.77;;
31282;SDS011;17915;52.540;13.604;2023-11-19T14:09:10;31.20;;;7.85;;
31282;SDS011;17915;52.540;13.604;2023-11-19T14:11:35;37.53;;;6.37;;
31282;SDS011;17915;52.540;13.604;2023-11-19T14:14:01;20.87;;;6.53;;
31282;SDS011;17915;52.540;13.604;2023-11-19T14:16:26;21.03;;;6.53;;
31282;SDS011;17915;52.540;13.604;2023-11-19T14:18:52;31.25;;;7.03;;
31282;SDS011;17915;52.540;13.604;2023-11-19T14:21:18;28.83;;;7.63;;
31282;SDS011;17915;52.540;13.604;2023-11-19T14:23:43;31.77;;;7.20;;
31282;SDS011;17915;52.540;13.604;2023-11-19T14:26:09;37.53;;;8.37;;
31282;SDS011;17915;52.540;13.604;2023-11-19T14:28:35;26.92;;;7.55;;
31282;SDS011;17915;52.540;13.604;2023-11-19T14:31:00;27.43;;;6.70;;
31282;SDS011;17915;52.540;13.604;2023-11-19T14:33:25;25.70;;;6.63;;
31282;SDS011;17915;52.540;13.604;2023-11-19T14:35:51;34.37;;;9.70;;
31282;SDS011;17915;52.540;13.604;2023-11-19T14:38:17;30.95;;;8.15;;
31282;SDS011;17915;52.540;13.604;2023-11-19T14:40:42;36.10;;;9.17;;
31282;SDS011;17915;52.540;13.604;2023-11-19T14:43:08;33.97;;;9.00;;
31282;SDS011;17915;52.540;13.604;2023-11-19T14:45:36;36.08;;;7.90;;
31282;SDS011;17915;52.540;13.604;2023-11-19T14:48:01;38.40;;;10.47;;
31282;SDS011;17915;52.540;13.604;2023-11-19T14:50:27;30.60;;;8.37;;
31282;SDS011;17915;52.540;13.604;2023-11-19T14:52:53;26.60;;;7.23;;
31282;SDS011;17915;52.540;13.604;2023-11-19T14:55:18;25.00;;;7.67;;
31282;SDS011;17915;52.540;13.604;2023-11-19T14:57:44;28.43;;;7.60;;
31282;SDS011;17915;52.540;13.604;2023-11-19T15:00:11;31.60;;;7.53;;
31282;SDS011;17915;52.540;13.604;2023-11-19T15:02:40;38.38;;;9.90;;
31282;SDS011;17915;52.540;13.604;2023-11-19T15:05:06;36.25;;;8.00;;
31282;SDS011;17915;52.540;13.604;2023-11-19T15:07:34;31.08;;;8.05;;